createdAt,value
2019-03-16T00:00:20.532Z,4.22
2019-03-16T00:02:49.218Z,4.85
2019-03-16T00:05:18.109Z,4.30
2019-03-16T00:07:46.898Z,4.08
2019-03-16T00:10:15.786Z,3.70
2019-03-16T00:12:44.680Z,4.60
2019-03-16T00:15:13.568Z,4.22
2019-03-16T00:17:42.265Z,4.40
2019-03-16T00:20:12.238Z,4.30
2019-03-16T00:22:41.166Z,5.37
2019-03-16T00:25:10.551Z,4.33
2019-03-16T00:27:39.556Z,5.05
2019-03-16T00:30:15.415Z,4.75
2019-03-16T00:32:44.199Z,4.10
2019-03-16T00:35:12.988Z,5.62
2019-03-16T00:37:41.775Z,5.58
2019-03-16T00:40:13.021Z,6.87
2019-03-16T00:42:41.810Z,5.00
2019-03-16T00:45:12.014Z,4.90
2019-03-16T00:47:40.924Z,5.65
2019-03-16T00:50:11.293Z,5.72
2019-03-16T00:52:40.327Z,6.03
2019-03-16T00:55:10.767Z,5.42
2019-03-16T00:57:39.759Z,6.78
2019-03-16T01:00:11.726Z,8.65
2019-03-16T01:02:40.614Z,8.10
2019-03-16T01:05:09.848Z,8.30
2019-03-16T01:07:38.701Z,7.65
2019-03-16T01:10:09.041Z,6.97
2019-03-16T01:12:37.915Z,7.62
2019-03-16T01:15:09.454Z,7.42
2019-03-16T01:17:38.362Z,7.33
2019-03-16T01:20:09.605Z,6.12
2019-03-16T01:22:38.495Z,7.03
2019-03-16T01:25:08.091Z,6.35
2019-03-16T01:27:36.992Z,5.30
2019-03-16T01:30:09.062Z,6.25
2019-03-16T01:32:40.805Z,5.87
2019-03-16T01:35:08.298Z,6.22
2019-03-16T01:37:37.108Z,5.95
2019-03-16T01:40:08.717Z,6.28
2019-03-16T01:42:37.709Z,6.63
2019-03-16T01:45:08.843Z,6.42
2019-03-16T01:47:37.645Z,7.03
2019-03-16T01:50:09.615Z,5.35
2019-03-16T01:52:38.495Z,5.28
2019-03-16T01:55:09.001Z,4.58
2019-03-16T01:57:37.811Z,2.90
2019-03-16T02:00:11.516Z,2.92
2019-03-16T02:02:53.810Z,2.83
2019-03-16T02:05:10.937Z,2.60
2019-03-16T02:07:39.823Z,2.72
2019-03-16T02:10:09.829Z,3.00
2019-03-16T02:12:38.628Z,3.17
2019-03-16T02:15:09.128Z,3.50
2019-03-16T02:17:37.946Z,3.02
2019-03-16T02:20:08.455Z,2.08
2019-03-16T02:22:37.364Z,3.08
2019-03-16T02:25:07.151Z,3.60
2019-03-16T02:27:36.172Z,3.05
2019-03-16T02:30:07.723Z,3.50
2019-03-16T02:32:36.616Z,4.33
2019-03-16T02:35:07.608Z,3.35
2019-03-16T02:37:36.650Z,2.95
2019-03-16T02:40:10.033Z,3.80
2019-03-16T02:42:38.847Z,2.60
2019-03-16T02:45:09.434Z,3.65
2019-03-16T02:47:38.279Z,3.08
2019-03-16T02:50:11.354Z,3.52
2019-03-16T02:52:40.137Z,3.12
2019-03-16T02:55:10.051Z,3.37
2019-03-16T02:57:38.938Z,2.70
2019-03-16T03:00:13.040Z,2.50
2019-03-16T03:02:42.040Z,2.33
2019-03-16T03:05:11.251Z,2.10
2019-03-16T03:07:40.129Z,2.47
2019-03-16T03:10:14.244Z,2.10
2019-03-16T03:12:43.235Z,1.80
2019-03-16T03:15:13.762Z,2.00
2019-03-16T03:17:42.552Z,1.92
2019-03-16T03:20:11.751Z,1.95
2019-03-16T03:22:40.643Z,1.85
2019-03-16T03:25:09.635Z,1.80
2019-03-16T03:27:38.627Z,1.82
2019-03-16T03:30:10.712Z,1.90
2019-03-16T03:32:39.730Z,2.45
2019-03-16T03:35:10.061Z,2.15
2019-03-16T03:37:38.997Z,1.90
2019-03-16T03:40:10.225Z,1.52
2019-03-16T03:42:39.149Z,1.72
2019-03-16T03:45:14.663Z,1.85
2019-03-16T03:47:43.679Z,1.60
2019-03-16T03:50:13.754Z,1.95
2019-03-16T03:52:42.584Z,1.65
2019-03-16T03:55:13.448Z,1.40
2019-03-16T03:57:42.823Z,1.50
2019-03-16T04:00:16.731Z,1.45
2019-03-16T04:02:45.516Z,1.25
2019-03-16T04:05:14.404Z,1.17
2019-03-16T04:08:02.547Z,1.22
2019-03-16T04:10:31.340Z,1.25
2019-03-16T04:13:00.124Z,1.00
2019-03-16T04:15:28.933Z,1.37
2019-03-16T04:17:57.700Z,1.45
2019-03-16T04:20:26.495Z,1.22
2019-03-16T04:22:55.382Z,1.72
2019-03-16T04:25:24.065Z,1.50
2019-03-16T04:27:53.061Z,1.15
2019-03-16T04:30:21.950Z,1.60
2019-03-16T04:32:50.735Z,1.77
2019-03-16T04:35:19.628Z,1.05
2019-03-16T04:37:48.413Z,1.60
2019-03-16T04:40:17.366Z,1.42
2019-03-16T04:42:46.297Z,1.32
2019-03-16T04:45:15.191Z,1.57
2019-03-16T04:47:43.877Z,1.27
2019-03-16T04:50:13.174Z,1.35
2019-03-16T04:52:42.175Z,1.40
2019-03-16T04:55:11.383Z,1.57
2019-03-16T04:57:40.357Z,1.60
2019-03-16T05:00:11.501Z,1.37
2019-03-16T05:02:40.288Z,2.00
2019-03-16T05:05:09.284Z,1.25
2019-03-16T05:07:38.071Z,1.40
2019-03-16T05:10:09.649Z,1.80
2019-03-16T05:12:38.521Z,1.50
2019-03-16T05:15:08.727Z,2.12
2019-03-16T05:17:37.626Z,1.60
2019-03-16T05:20:09.486Z,1.40
2019-03-16T05:22:38.381Z,1.40
2019-03-16T05:25:10.034Z,1.55
2019-03-16T05:27:38.926Z,1.73
2019-03-16T05:30:12.555Z,1.60
2019-03-16T05:32:41.412Z,1.95
2019-03-16T05:35:10.308Z,1.75
2019-03-16T05:37:39.193Z,1.35
2019-03-16T05:40:09.814Z,1.60
2019-03-16T05:42:38.820Z,1.40
2019-03-16T05:45:09.030Z,1.20
2019-03-16T05:47:37.730Z,1.10
2019-03-16T05:50:11.899Z,1.25
2019-03-16T05:52:40.732Z,1.45
2019-03-16T05:55:09.808Z,1.10
2019-03-16T05:57:38.722Z,1.60
2019-03-16T06:00:10.877Z,1.15
2019-03-16T06:02:39.876Z,1.17
2019-03-16T06:05:10.816Z,1.92
2019-03-16T06:07:39.195Z,1.52
2019-03-16T06:10:12.303Z,1.30
2019-03-16T06:12:41.074Z,1.45
2019-03-16T06:15:11.037Z,1.47
2019-03-16T06:17:39.978Z,1.90
2019-03-16T06:20:13.693Z,1.75
2019-03-16T06:22:42.574Z,2.75
2019-03-16T06:25:11.459Z,3.02
2019-03-16T06:27:40.352Z,2.17
2019-03-16T06:30:13.769Z,2.40
2019-03-16T06:32:42.640Z,1.82
2019-03-16T06:35:24.047Z,2.17
2019-03-16T06:37:41.852Z,1.90
2019-03-16T06:40:11.344Z,2.42
2019-03-16T06:42:40.259Z,1.77
2019-03-16T06:45:11.226Z,1.60
2019-03-16T06:47:40.180Z,2.05
2019-03-16T06:50:11.726Z,1.52
2019-03-16T06:52:40.622Z,1.50
2019-03-16T06:55:09.511Z,1.70
2019-03-16T06:57:38.301Z,1.60
2019-03-16T07:00:14.633Z,1.22
2019-03-16T07:02:43.455Z,1.17
2019-03-16T07:05:13.311Z,1.72
2019-03-16T07:07:42.157Z,1.42
2019-03-16T07:10:12.427Z,1.00
2019-03-16T07:12:41.478Z,1.50
2019-03-16T07:15:12.312Z,1.20
2019-03-16T07:17:41.102Z,0.88
2019-03-16T07:20:11.810Z,1.05
2019-03-16T07:22:40.826Z,1.42
2019-03-16T07:25:09.822Z,1.37
2019-03-16T07:27:38.711Z,1.22
2019-03-16T07:30:10.664Z,1.30
2019-03-16T07:32:39.564Z,1.52
2019-03-16T07:35:10.176Z,1.20
2019-03-16T07:37:39.206Z,1.07
2019-03-16T07:40:12.890Z,1.40
2019-03-16T07:42:42.687Z,1.25
2019-03-16T07:45:12.693Z,1.37
2019-03-16T07:47:41.406Z,1.50
2019-03-16T07:50:12.335Z,1.50
2019-03-16T07:52:41.333Z,1.65
2019-03-16T07:55:11.150Z,1.82
2019-03-16T07:57:40.947Z,2.12
2019-03-16T08:00:13.307Z,2.60
2019-03-16T08:02:42.432Z,2.40
2019-03-16T08:05:17.949Z,2.12
2019-03-16T08:07:42.165Z,2.33
2019-03-16T08:10:11.662Z,2.47
2019-03-16T08:12:40.654Z,2.33
2019-03-16T08:15:30.537Z,2.45
2019-03-16T08:17:59.611Z,1.92
2019-03-16T08:20:31.300Z,2.25
2019-03-16T08:22:59.151Z,2.62
2019-03-16T08:25:27.941Z,2.08
2019-03-16T08:27:56.728Z,1.40
2019-03-16T08:30:25.625Z,1.52
2019-03-16T08:32:54.616Z,1.40
2019-03-16T08:35:23.400Z,1.75
2019-03-16T08:37:52.291Z,1.32
2019-03-16T08:40:21.909Z,1.62
2019-03-16T08:42:51.570Z,0.85
2019-03-16T08:45:20.908Z,1.02
2019-03-16T08:47:49.594Z,1.00
2019-03-16T08:50:18.487Z,1.32
2019-03-16T08:52:47.380Z,1.07
2019-03-16T08:55:16.380Z,1.62
2019-03-16T08:57:45.158Z,1.20
2019-03-16T09:00:15.212Z,1.37
2019-03-16T09:02:44.175Z,1.00
2019-03-16T09:05:13.048Z,1.55
2019-03-16T09:07:41.949Z,1.02
2019-03-16T09:10:11.245Z,1.22
2019-03-16T09:12:40.138Z,1.47
2019-03-16T09:15:11.896Z,0.88
2019-03-16T09:17:40.891Z,1.10
2019-03-16T09:20:10.179Z,1.20
2019-03-16T09:22:39.082Z,1.32
2019-03-16T09:25:09.800Z,1.77
2019-03-16T09:27:38.706Z,1.45
2019-03-16T09:30:18.243Z,1.60
2019-03-16T09:32:47.134Z,1.30
2019-03-16T09:35:15.929Z,1.40
2019-03-16T09:37:44.815Z,1.10
2019-03-16T09:40:13.923Z,1.37
2019-03-16T09:42:42.699Z,1.30
2019-03-16T09:45:12.621Z,1.57
2019-03-16T09:47:41.506Z,1.10
2019-03-16T09:50:11.521Z,1.62
2019-03-16T09:52:40.632Z,1.35
2019-03-16T09:55:10.967Z,1.50
2019-03-16T09:57:39.874Z,1.00
2019-03-16T10:00:14.347Z,1.15
2019-03-16T10:02:43.137Z,1.17
2019-03-16T10:05:12.027Z,1.20
2019-03-16T10:07:40.814Z,1.60
2019-03-16T10:10:16.259Z,1.40
2019-03-16T10:12:45.250Z,1.50
2019-03-16T10:15:14.697Z,1.62
2019-03-16T10:17:43.556Z,1.22
2019-03-16T10:20:15.407Z,1.82
2019-03-16T10:22:44.301Z,1.52
2019-03-16T10:25:13.190Z,1.47
2019-03-16T10:27:42.084Z,2.15
2019-03-16T10:30:12.678Z,1.90
2019-03-16T10:32:41.597Z,1.70
2019-03-16T10:35:10.591Z,1.55
2019-03-16T10:37:39.482Z,1.87
2019-03-16T10:40:10.872Z,1.67
2019-03-16T10:42:39.919Z,1.55
2019-03-16T10:45:10.313Z,1.82
2019-03-16T10:47:39.140Z,1.80
2019-03-16T10:50:12.922Z,1.50
2019-03-16T10:52:42.041Z,1.90
2019-03-16T10:55:11.239Z,1.70
2019-03-16T10:57:40.247Z,1.87
2019-03-16T11:00:12.117Z,1.55
2019-03-16T11:02:41.094Z,2.60
2019-03-16T11:05:10.306Z,1.57
2019-03-16T11:07:39.073Z,1.70
2019-03-16T11:10:11.031Z,1.60
2019-03-16T11:12:40.229Z,1.37
2019-03-16T11:15:10.657Z,1.40
2019-03-16T11:17:39.869Z,1.67
2019-03-16T11:20:10.517Z,1.20
2019-03-16T11:22:39.691Z,1.12
2019-03-16T11:25:09.072Z,1.75
2019-03-16T11:27:38.283Z,1.52
2019-03-16T11:30:16.292Z,1.10
2019-03-16T11:32:45.387Z,0.98
2019-03-16T11:35:19.572Z,1.10
2019-03-16T11:37:48.492Z,1.65
2019-03-16T11:40:20.758Z,1.40
2019-03-16T11:42:49.651Z,1.47
2019-03-16T11:45:18.849Z,1.62
2019-03-16T11:47:49.122Z,1.40
2019-03-16T11:50:18.164Z,1.75
2019-03-16T11:52:47.156Z,1.40
2019-03-16T11:55:15.955Z,1.60
2019-03-16T11:57:44.735Z,1.40
2019-03-16T12:00:14.536Z,1.50
2019-03-16T12:02:43.435Z,1.67
2019-03-16T12:05:12.886Z,1.47
2019-03-16T12:07:41.939Z,1.60
2019-03-16T12:10:12.092Z,1.50
2019-03-16T12:12:40.956Z,2.15
2019-03-16T12:15:14.171Z,1.65
2019-03-16T12:17:43.129Z,1.50
2019-03-16T12:20:13.662Z,1.57
2019-03-16T12:22:44.849Z,1.40
2019-03-16T12:25:15.775Z,1.55
2019-03-16T12:27:47.140Z,1.37
2019-03-16T12:30:16.692Z,1.40
2019-03-16T12:32:45.939Z,1.20
2019-03-16T12:35:15.191Z,1.62
2019-03-16T12:37:44.394Z,1.50
2019-03-16T12:40:14.526Z,1.60
2019-03-16T12:42:45.179Z,1.27
2019-03-16T12:45:15.604Z,1.60
2019-03-16T12:47:44.871Z,1.67
2019-03-16T12:50:14.109Z,1.55
2019-03-16T12:52:43.293Z,1.67
2019-03-16T12:55:12.831Z,1.82
2019-03-16T12:57:42.009Z,1.27
2019-03-16T13:00:18.946Z,1.40
2019-03-16T13:02:47.734Z,1.12
2019-03-16T13:05:16.724Z,1.65
2019-03-16T13:07:45.718Z,1.80
2019-03-16T13:10:18.588Z,1.60
2019-03-16T13:12:47.492Z,1.65
2019-03-16T13:15:16.388Z,1.47
2019-03-16T13:17:45.169Z,2.05
2019-03-16T13:20:15.035Z,1.98
2019-03-16T13:22:44.004Z,1.40
2019-03-16T13:25:13.180Z,1.60
2019-03-16T13:27:42.268Z,1.47
2019-03-16T13:30:15.989Z,1.77
2019-03-16T13:32:44.967Z,1.82
2019-03-16T13:35:14.058Z,1.47
2019-03-16T13:37:42.949Z,1.70
2019-03-16T13:40:16.858Z,1.70
2019-03-16T13:42:45.754Z,1.30
2019-03-16T13:45:14.927Z,1.32
2019-03-16T13:47:43.734Z,1.70
2019-03-16T13:50:17.116Z,1.70
2019-03-16T13:52:46.232Z,1.72
2019-03-16T13:55:15.218Z,1.80
2019-03-16T13:57:44.006Z,1.90
2019-03-16T14:00:20.534Z,1.98
2019-03-16T14:02:49.569Z,1.60
2019-03-16T14:05:18.467Z,2.33
2019-03-16T14:07:47.240Z,1.62
2019-03-16T14:10:27.815Z,1.75
2019-03-16T14:12:56.703Z,2.00
2019-03-16T14:15:25.697Z,2.12
2019-03-16T14:17:57.592Z,1.70
2019-03-16T14:20:25.426Z,1.70
2019-03-16T14:23:15.620Z,1.70
2019-03-16T14:25:45.427Z,1.77
2019-03-16T14:28:14.626Z,1.90
2019-03-16T14:30:45.168Z,1.70
2019-03-16T14:33:14.887Z,1.82
2019-03-16T14:35:43.855Z,1.75
2019-03-16T14:38:12.593Z,1.90
2019-03-16T14:40:41.536Z,1.70
2019-03-16T14:45:44.538Z,1.42
2019-03-16T14:48:13.432Z,1.40
2019-03-16T14:50:42.219Z,1.60
2019-03-16T14:53:11.008Z,2.42
2019-03-16T14:55:39.894Z,1.95
2019-03-16T14:58:08.785Z,1.92
2019-03-16T15:00:39.011Z,2.25
2019-03-16T15:03:08.058Z,1.47
2019-03-16T15:05:36.993Z,1.50
2019-03-16T15:08:05.884Z,2.02
2019-03-16T15:10:34.878Z,2.35
2019-03-16T15:13:03.665Z,2.00
2019-03-16T15:15:32.663Z,1.67
2019-03-16T15:18:01.537Z,1.50
2019-03-16T15:20:30.442Z,2.17
2019-03-16T15:22:59.227Z,1.40
2019-03-16T15:25:28.016Z,1.70
2019-03-16T15:27:56.803Z,1.55
2019-03-16T15:30:25.589Z,2.17
2019-03-16T15:32:54.480Z,1.55
2019-03-16T15:35:23.373Z,2.08
2019-03-16T15:37:52.268Z,1.80
2019-03-16T15:40:21.071Z,1.92
2019-03-16T15:42:49.837Z,1.90
2019-03-16T15:45:25.469Z,2.02
2019-03-16T15:47:54.381Z,1.90
2019-03-16T15:50:23.376Z,2.15
2019-03-16T15:52:52.160Z,2.00
2019-03-16T15:55:21.049Z,2.27
2019-03-16T15:57:50.043Z,2.35
2019-03-16T16:00:19.549Z,2.52
2019-03-16T16:02:48.437Z,1.70
2019-03-16T16:05:17.331Z,2.60
2019-03-16T16:07:46.324Z,2.08
2019-03-16T16:10:16.678Z,2.70
2019-03-16T16:12:45.444Z,2.30
2019-03-16T16:15:14.695Z,2.12
2019-03-16T16:17:43.521Z,2.02
2019-03-16T16:20:19.374Z,2.47
2019-03-16T16:22:48.167Z,2.62
2019-03-16T16:25:17.052Z,2.77
2019-03-16T16:27:46.000Z,2.27
2019-03-16T16:30:19.136Z,2.65
2019-03-16T16:32:48.138Z,2.65
2019-03-16T16:35:17.531Z,3.22
2019-03-16T16:37:46.625Z,2.40
2019-03-16T16:40:19.231Z,2.50
2019-03-16T16:42:48.270Z,3.05
2019-03-16T16:45:17.975Z,2.87
2019-03-16T16:47:46.901Z,2.17
2019-03-16T16:50:17.938Z,2.47
2019-03-16T16:52:47.033Z,3.00
2019-03-16T16:55:15.925Z,2.15
2019-03-16T16:57:44.818Z,3.30
2019-03-16T17:00:24.155Z,2.85
2019-03-16T17:02:52.940Z,3.45
2019-03-16T17:05:21.936Z,3.60
2019-03-16T17:07:50.823Z,3.12
2019-03-16T17:10:19.813Z,2.85
2019-03-16T17:12:48.711Z,3.95
2019-03-16T17:15:22.239Z,2.90
2019-03-16T17:17:51.202Z,3.27
2019-03-16T17:20:20.090Z,3.08
2019-03-16T17:22:48.877Z,2.62
2019-03-16T17:25:17.872Z,3.10
2019-03-16T17:27:46.761Z,2.92
2019-03-16T17:30:24.148Z,2.60
2019-03-16T17:32:53.052Z,3.02
2019-03-16T17:35:21.827Z,2.65
2019-03-16T17:37:50.617Z,3.05
2019-03-16T17:40:19.701Z,2.67
2019-03-16T17:42:48.600Z,3.70
2019-03-16T17:45:17.484Z,2.80
2019-03-16T17:47:46.386Z,3.50
2019-03-16T17:50:16.176Z,3.90
2019-03-16T17:52:45.086Z,3.98
2019-03-16T17:55:15.361Z,3.15
2019-03-16T17:57:45.468Z,3.70
2019-03-16T18:00:18.368Z,3.87
2019-03-16T18:02:51.727Z,4.25
2019-03-16T18:05:17.759Z,4.20
2019-03-16T18:07:46.710Z,3.60
2019-03-16T18:10:16.225Z,4.10
2019-03-16T18:12:45.018Z,3.37
2019-03-16T18:15:21.722Z,3.75
2019-03-16T18:17:51.090Z,4.35
2019-03-16T18:20:20.186Z,3.35
2019-03-16T18:22:50.355Z,3.47
2019-03-16T18:25:19.401Z,3.62
2019-03-16T18:27:48.293Z,3.40
2019-03-16T18:30:21.388Z,3.62
2019-03-16T18:32:50.271Z,3.20
2019-03-16T18:35:19.365Z,3.58
2019-03-16T18:37:48.258Z,3.87
2019-03-16T18:40:21.153Z,4.45
2019-03-16T18:42:50.047Z,4.10
2019-03-16T18:45:30.587Z,4.17
2019-03-16T18:47:59.384Z,4.72
2019-03-16T18:50:28.377Z,4.97
2019-03-16T18:52:58.375Z,4.45
2019-03-16T18:55:27.389Z,4.72
2019-03-16T18:57:56.281Z,4.70
2019-03-16T19:00:25.274Z,4.80
2019-03-16T19:02:54.371Z,4.05
2019-03-16T19:05:23.158Z,4.78
2019-03-16T19:07:51.947Z,4.65
2019-03-16T19:10:21.040Z,4.58
2019-03-16T19:12:49.984Z,4.40
2019-03-16T19:15:20.634Z,3.87
2019-03-16T19:17:58.778Z,3.72
2019-03-16T19:20:20.296Z,4.03
2019-03-16T19:22:49.661Z,4.65
2019-03-16T19:25:23.542Z,4.30
2019-03-16T19:27:52.704Z,4.20
2019-03-16T19:30:21.582Z,4.22
2019-03-16T19:32:50.475Z,4.05
2019-03-16T19:35:19.347Z,4.28
2019-03-16T19:37:48.480Z,4.45
2019-03-16T19:40:18.816Z,5.05
2019-03-16T19:42:48.088Z,5.25
2019-03-16T19:45:17.280Z,5.33
2019-03-16T19:47:46.385Z,4.60
2019-03-16T19:50:16.076Z,5.10
2019-03-16T19:52:45.288Z,5.20
2019-03-16T19:55:15.003Z,5.53
2019-03-16T19:57:44.184Z,5.10
2019-03-16T20:00:17.790Z,5.37
2019-03-16T20:02:50.982Z,5.20
2019-03-16T20:05:17.319Z,4.85
2019-03-16T20:07:46.336Z,5.37
2019-03-16T20:10:19.879Z,4.85
2019-03-16T20:12:49.114Z,5.22
2019-03-16T20:15:18.100Z,4.70
2019-03-16T20:17:46.991Z,4.45
2019-03-16T20:20:18.750Z,5.15
2019-03-16T20:22:47.638Z,4.83
2019-03-16T20:25:16.432Z,5.37
2019-03-16T20:27:45.319Z,5.05
2019-03-16T20:30:16.084Z,5.58
2019-03-16T20:32:50.269Z,5.90
2019-03-16T20:35:15.677Z,5.55
2019-03-16T20:37:44.671Z,5.03
2019-03-16T20:40:14.374Z,5.17
2019-03-16T20:42:43.373Z,5.85
2019-03-16T20:45:12.908Z,5.67
2019-03-16T20:47:41.966Z,5.53
2019-03-16T20:50:13.931Z,6.25
2019-03-16T20:52:43.241Z,6.78
2019-03-16T20:55:12.132Z,5.72
2019-03-16T20:57:41.115Z,4.95
2019-03-16T21:00:18.030Z,5.60
2019-03-16T21:02:47.166Z,5.37
2019-03-16T21:05:16.325Z,5.08
2019-03-16T21:07:45.282Z,5.37
2019-03-16T21:10:23.112Z,5.28
2019-03-16T21:13:01.017Z,4.33
2019-03-16T21:15:40.407Z,4.80
2019-03-16T21:18:20.381Z,4.25
2019-03-16T21:20:58.502Z,4.95
2019-03-16T21:23:38.045Z,4.10
2019-03-16T21:26:17.078Z,4.45
2019-03-16T21:28:56.691Z,4.85
2019-03-16T21:31:29.228Z,3.60
2019-03-16T21:34:00.650Z,3.65
2019-03-16T21:36:52.811Z,4.65
2019-03-16T21:39:26.106Z,4.22
2019-03-16T21:41:55.345Z,3.70
2019-03-16T21:44:29.194Z,3.98
2019-03-16T21:47:19.344Z,3.20
2019-03-16T21:49:52.965Z,3.25
2019-03-16T21:52:26.052Z,3.62
2019-03-16T21:54:58.322Z,4.40
2019-03-16T22:02:36.524Z,3.50
2019-03-16T22:05:14.020Z,4.12
2019-03-16T22:07:48.002Z,3.85
2019-03-16T22:10:22.021Z,3.55
2019-03-16T22:12:56.302Z,3.15
2019-03-16T22:15:29.979Z,3.42
2019-03-16T22:18:04.134Z,3.83
2019-03-16T22:20:36.991Z,3.40
2019-03-16T22:23:10.204Z,3.40
2019-03-16T22:25:43.662Z,3.35
2019-03-16T22:28:14.370Z,2.85
2019-03-16T22:30:50.048Z,3.27
2019-03-16T22:33:20.965Z,2.37
2019-03-16T22:35:53.150Z,2.98
2019-03-16T22:38:46.429Z,2.65
2019-03-16T22:41:21.904Z,2.70
2019-03-16T22:43:53.464Z,2.17
2019-03-16T22:46:24.339Z,2.60
2019-03-16T22:48:54.157Z,3.08
2019-03-16T22:51:23.047Z,2.35
2019-03-16T22:53:51.739Z,2.10
2019-03-16T22:56:20.623Z,2.20
2019-03-16T22:58:49.415Z,2.27
2019-03-16T23:01:18.814Z,2.90
2019-03-16T23:03:47.814Z,2.10
2019-03-16T23:06:16.696Z,2.33
2019-03-16T23:12:43.002Z,2.02
2019-03-16T23:18:59.853Z,2.45
2019-03-16T23:21:54.678Z,2.30
2019-03-16T23:24:55.516Z,1.77
2019-03-16T23:27:35.948Z,1.80
2019-03-16T23:37:09.247Z,2.10
2019-03-16T23:39:46.001Z,2.95
2019-03-16T23:42:14.931Z,2.52
2019-03-16T23:50:47.827Z,2.37
2019-03-16T23:53:16.711Z,2.55
2019-03-16T23:55:45.600Z,2.58
2019-03-16T23:58:14.590Z,2.05
